Time;durP1;ratioP1;P1;durP2;ratioP2;P2;SDS_P1;SDS_P2;PMS_P1;PMS_P2;Temp;Humidity;BMP_temperature;BMP_pressure;BME280_temperature;BME280_humidity;BME280_pressure;Samples;Min_cycle;Max_cycle;Signal;HPM_P1;HPM_P2
2021/06/01 00:02:27;;;;;;;7.50;3.88;;;;;;;12.64;80.03;101900.47;6226313;28;20053;-78
2021/06/01 00:05:28;;;;;;;8.40;3.53;;;;;;;12.60;80.00;101898.91;6226322;28;20532;-80
2021/06/01 00:08:29;;;;;;;4.53;3.30;;;;;;;12.59;80.39;101892.75;6226337;28;20050;-80
2021/06/01 00:11:31;;;;;;;8.55;3.30;;;;;;;12.54;79.98;101893.91;6225734;28;20060;-80
2021/06/01 00:14:32;;;;;;;5.75;3.90;;;;;;;12.50;80.45;101881.75;6225845;28;20049;-79
2021/06/01 00:17:33;;;;;;;8.27;3.20;;;;;;;12.42;80.49;101890.84;6225927;28;20053;-80
2021/06/01 00:20:34;;;;;;;10.20;3.53;;;;;;;12.41;80.79;101891.78;6225728;28;20111;-80
2021/06/01 00:23:37;;;;;;;9.98;3.30;;;;;;;12.39;80.61;101888.34;6225864;28;20505;-80
2021/06/01 00:26:41;;;;;;;5.68;3.53;;;;;;;12.32;81.91;101897.44;6226000;28;20049;-80
2021/06/01 00:29:42;;;;;;;11.65;3.60;;;;;;;12.29;81.62;101894.06;6225625;28;20157;-79
2021/06/01 00:32:43;;;;;;;5.07;3.17;;;;;;;12.32;82.38;101902.72;6225384;28;20125;-80
2021/06/01 00:35:44;;;;;;;8.43;3.53;;;;;;;12.20;82.15;101897.94;6225562;28;20133;-80
2021/06/01 00:38:45;;;;;;;13.07;3.47;;;;;;;12.21;82.62;101893.53;6225495;28;20050;-80
2021/06/01 00:41:49;;;;;;;6.80;3.67;;;;;;;12.22;82.29;101889.97;6225048;28;20046;-80
2021/06/01 00:44:51;;;;;;;10.52;3.22;;;;;;;12.13;82.78;101892.09;6225249;28;20056;-80
2021/06/01 00:47:52;;;;;;;7.15;3.65;;;;;;;12.09;83.66;101893.13;6225158;28;20060;-79
2021/06/01 00:50:53;;;;;;;7.13;3.70;;;;;;;12.01;84.45;101889.94;6224155;28;20087;-82
2021/06/01 00:53:54;;;;;;;8.27;3.70;;;;;;;11.98;84.55;101882.16;6224932;28;20049;-80
2021/06/01 00:56:57;;;;;;;6.82;3.55;;;;;;;11.92;85.03;101885.91;6224969;28;20046;-80
2021/06/01 00:59:58;;;;;;;7.25;3.60;;;;;;;11.92;85.46;101891.19;6225102;28;20046;-80
2021/06/01 01:02:59;;;;;;;10.70;3.65;;;;;;;11.91;84.71;101894.75;6224716;28;20053;-81
2021/06/01 01:06:05;;;;;;;10.30;3.38;;;;;;;11.79;85.94;101886.44;6224959;28;20046;-79
2021/06/01 01:09:10;;;;;;;9.35;3.55;;;;;;;11.78;85.50;101882.94;6224558;28;20073;-78
2021/06/01 01:12:21;;;;;;;6.97;3.60;;;;;;;11.75;86.10;101880.41;6224568;28;20402;-80
2021/06/01 01:15:25;;;;;;;6.65;3.53;;;;;;;11.74;86.24;101883.13;6224327;28;20497;-79
2021/06/01 01:18:29;;;;;;;7.93;3.13;;;;;;;11.72;86.11;101892.84;6224653;28;20099;-80
2021/06/01 01:21:37;;;;;;;7.65;3.22;;;;;;;11.69;85.54;101885.94;6224879;28;20054;-79
2021/06/01 01:24:48;;;;;;;7.80;3.50;;;;;;;11.64;86.16;101888.75;6224316;28;20054;-79
2021/06/01 01:28:03;;;;;;;6.13;3.47;;;;;;;11.58;86.31;101886.38;6224267;28;20052;-80
2021/06/01 01:31:13;;;;;;;6.53;3.78;;;;;;;11.56;87.45;101887.34;6224338;28;20129;-80
2021/06/01 01:34:17;;;;;;;5.43;3.58;;;;;;;11.53;87.50;101879.56;6224271;28;20061;-79
2021/06/01 01:37:20;;;;;;;7.15;3.65;;;;;;;11.50;87.89;101883.19;6224042;28;20050;-80
2021/06/01 01:40:22;;;;;;;4.53;3.63;;;;;;;11.43;89.29;101879.06;6223977;28;20057;-79
2021/06/01 01:43:28;;;;;;;5.60;3.80;;;;;;;11.41;89.46;101891.44;6223957;28;20056;-80
2021/06/01 01:46:35;;;;;;;8.48;3.50;;;;;;;11.34;88.85;101893.44;6223721;28;20417;-79
2021/06/01 01:49:37;;;;;;;6.20;3.20;;;;;;;11.37;89.45;101882.78;6223856;28;20413;-80
2021/06/01 01:52:40;;;;;;;8.43;3.63;;;;;;;11.33;88.89;101883.81;6224068;28;20088;-79
2021/06/01 01:55:45;;;;;;;6.88;3.63;;;;;;;11.31;89.29;101892.69;6223566;28;20050;-80
2021/06/01 01:58:49;;;;;;;5.53;3.60;;;;;;;11.25;89.03;101885.03;6223936;28;20049;-80
2021/06/01 02:01:51;;;;;;;7.25;3.95;;;;;;;11.20;89.16;101892.25;6223862;28;20050;-79
2021/06/01 02:04:54;;;;;;;6.25;4.05;;;;;;;11.21;89.06;101893.94;6223155;28;20065;-80
2021/06/01 02:07:55;;;;;;;5.47;3.50;;;;;;;11.19;89.36;101888.75;6223602;28;20421;-80
2021/06/01 02:10:56;;;;;;;11.48;3.55;;;;;;;11.14;88.97;101893.34;6223999;28;20081;-79
2021/06/01 02:14:00;;;;;;;5.82;3.72;;;;;;;11.07;90.47;101892.69;6223998;28;20048;-79
2021/06/01 02:17:01;;;;;;;9.10;4.00;;;;;;;11.00;89.50;101882.47;6223609;28;20076;-80
2021/06/01 02:20:05;;;;;;;9.10;3.72;;;;;;;11.00;90.33;101880.69;6223812;28;20050;-80
2021/06/01 02:26:47;;;;;;;5.03;3.80;;;;;;;11.00;89.80;101879.84;6223257;28;20046;-79
2021/06/01 02:30:03;;;;;;;9.75;4.13;;;;;;;10.95;91.50;101876.53;6223605;28;20544;-78
2021/06/01 02:33:05;;;;;;;7.75;4.43;;;;;;;10.88;91.09;101875.88;6223681;28;20084;-79
2021/06/01 02:36:08;;;;;;;5.60;3.80;;;;;;;10.84;90.85;101871.63;6223777;28;20131;-79
2021/06/01 02:39:11;;;;;;;7.05;4.13;;;;;;;10.82;91.79;101865.59;6223968;28;20076;-79
2021/06/01 02:42:12;;;;;;;8.43;3.72;;;;;;;10.79;91.77;101863.91;6223815;28;20042;-79
2021/06/01 02:45:15;;;;;;;5.88;3.75;;;;;;;10.77;91.70;101862.28;6223258;28;20108;-79
2021/06/01 02:48:19;;;;;;;5.30;3.97;;;;;;;10.76;91.03;101868.41;6223885;28;20493;-80
2021/06/01 02:51:21;;;;;;;10.32;4.10;;;;;;;10.74;91.34;101871.13;6223247;28;20049;-78
2021/06/01 02:54:24;;;;;;;7.75;3.95;;;;;;;10.76;91.64;101869.28;6222961;28;20433;-79
2021/06/01 02:57:25;;;;;;;9.55;4.07;;;;;;;10.73;91.21;101866.78;6223478;28;20490;-79
2021/06/01 03:00:26;;;;;;;6.68;4.30;;;;;;;10.71;91.90;101862.47;6223191;28;20429;-79
2021/06/01 03:03:27;;;;;;;6.95;4.47;;;;;;;10.70;90.70;101866.88;6223626;28;20123;-79
2021/06/01 03:06:30;;;;;;;11.55;4.18;;;;;;;10.70;91.01;101866.03;6223529;28;20054;-80
2021/06/01 03:09:31;;;;;;;7.03;4.13;;;;;;;10.63;92.50;101862.78;6223465;28;20057;-79
2021/06/01 03:12:39;;;;;;;6.85;4.72;;;;;;;10.58;92.78;101865.56;6223457;28;20444;-79
2021/06/01 03:15:40;;;;;;;5.82;4.03;;;;;;;10.55;93.15;101860.41;6225796;28;20575;-79
2021/06/01 03:18:41;;;;;;;10.85;4.30;;;;;;;10.54;92.72;101857.84;6228068;28;20137;-79
2021/06/01 03:21:45;;;;;;;9.20;4.43;;;;;;;10.53;92.42;101856.09;6227650;28;20057;-79
2021/06/01 03:24:46;;;;;;;7.15;4.57;;;;;;;10.48;92.35;101855.41;6228026;28;20492;-79
2021/06/01 03:27:47;;;;;;;8.25;4.65;;;;;;;10.44;92.54;101856.41;6227411;28;20468;-80
2021/06/01 03:30:50;;;;;;;7.45;4.40;;;;;;;10.43;92.84;101854.72;6227806;28;20092;-79
2021/06/01 03:33:53;;;;;;;11.63;4.75;;;;;;;10.40;92.77;101853.91;6227820;28;20053;-80
2021/06/01 03:36:55;;;;;;;7.07;4.65;;;;;;;10.43;92.62;101854.72;6227964;28;20062;-80
2021/06/01 03:39:56;;;;;;;10.75;4.32;;;;;;;10.41;93.49;101849.53;6227587;28;20050;-79
2021/06/01 03:42:57;;;;;;;9.88;4.90;;;;;;;10.39;94.69;101846.06;6227528;28;20127;-79
2021/06/01 03:45:58;;;;;;;6.32;4.03;;;;;;;10.42;93.78;101853.84;6226940;28;20137;-79
2021/06/01 03:48:59;;;;;;;7.82;4.07;;;;;;;10.40;93.86;101846.03;6227643;28;20066;-79
2021/06/01 03:52:06;;;;;;;9.23;4.88;;;;;;;10.41;94.88;101847.75;6225386;28;20180;-79
2021/06/01 03:55:08;;;;;;;6.25;4.53;;;;;;;10.45;94.56;101839.78;6227303;28;20049;-79
2021/06/01 03:58:09;;;;;;;9.10;4.55;;;;;;;10.48;94.37;101844.91;6227371;28;20054;-80
2021/06/01 04:01:10;;;;;;;7.07;4.55;;;;;;;10.43;94.64;101845.06;6227225;28;20046;-79
2021/06/01 04:04:11;;;;;;;11.00;5.10;;;;;;;10.46;95.01;101833.59;6227025;28;20650;-79
2021/06/01 04:07:13;;;;;;;12.57;4.85;;;;;;;10.47;94.67;101832.66;6227147;28;20137;-80
2021/06/01 04:10:15;;;;;;;10.00;4.82;;;;;;;10.51;94.64;101840.41;6227485;28;20107;-79
2021/06/01 04:13:16;;;;;;;16.73;4.72;;;;;;;10.58;93.34;101841.91;6226770;28;20133;-79
2021/06/01 04:16:17;;;;;;;13.63;4.93;;;;;;;10.59;93.70;101838.34;6226120;28;20155;-79
2021/06/01 04:19:18;;;;;;;9.25;4.82;;;;;;;10.60;94.34;101841.84;6226471;28;20053;-80
2021/06/01 04:22:21;;;;;;;16.95;5.18;;;;;;;10.61;94.72;101835.66;6226655;28;20413;-80
2021/06/01 04:25:22;;;;;;;11.95;5.68;;;;;;;10.63;95.83;101839.13;6226536;28;20054;-80
2021/06/01 04:28:23;;;;;;;18.90;6.45;;;;;;;10.64;95.45;101839.03;6226233;28;20800;-78
2021/06/01 04:31:32;;;;;;;8.60;5.60;;;;;;;10.68;94.21;101834.53;6226524;28;20057;-80
2021/06/01 04:34:33;;;;;;;8.98;5.13;;;;;;;10.76;94.96;101834.25;6226401;28;20053;-78
2021/06/01 04:37:35;;;;;;;7.63;5.35;;;;;;;10.85;95.37;101834.75;6226828;28;20053;-78
2021/06/01 04:40:36;;;;;;;10.63;5.82;;;;;;;10.90;94.69;101837.22;6226558;28;20053;-80
2021/06/01 04:43:37;;;;;;;9.38;6.20;;;;;;;10.86;94.67;101835.66;6226859;28;20119;-79
2021/06/01 04:46:38;;;;;;;9.80;6.40;;;;;;;10.89;94.62;101831.09;6226883;28;20054;-79
2021/06/01 04:49:39;;;;;;;8.13;5.97;;;;;;;10.95;94.81;101844.97;6226156;28;20099;-79
2021/06/01 04:52:41;;;;;;;10.23;5.70;;;;;;;11.00;94.52;101838.63;6226634;28;20050;-79
2021/06/01 04:55:42;;;;;;;9.13;5.97;;;;;;;11.05;94.01;101852.44;6226201;28;20413;-79
2021/06/01 04:58:44;;;;;;;10.68;5.85;;;;;;;11.06;93.54;101848.88;6225828;28;20136;-80
2021/06/01 05:01:44;;;;;;;11.13;6.65;;;;;;;11.11;93.87;101846.94;6226777;28;20046;-79
2021/06/01 05:04:45;;;;;;;8.30;5.95;;;;;;;11.20;93.93;101848.38;6226354;28;20084;-80
2021/06/01 05:07:47;;;;;;;15.95;6.78;;;;;;;11.26;94.64;101844.63;6226434;28;20054;-80
2021/06/01 05:10:48;;;;;;;10.98;5.93;;;;;;;11.34;94.51;101847.84;6226198;28;20058;-80
2021/06/01 05:13:49;;;;;;;8.77;5.78;;;;;;;11.40;95.07;101848.47;6225925;28;20080;-79
2021/06/01 05:16:50;;;;;;;14.15;5.85;;;;;;;11.49;94.35;101855.16;6226933;23;20050;-75
2021/06/01 05:19:51;;;;;;;13.23;6.45;;;;;;;11.58;94.58;101846.88;6198687;28;20185;-75
2021/06/01 05:22:53;;;;;;;11.82;5.50;;;;;;;11.72;93.73;101848.09;6198250;28;20178;-75
2021/06/01 05:25:55;;;;;;;13.15;6.43;;;;;;;11.81;93.10;101845.97;6177003;28;20058;-75
2021/06/01 05:28:56;;;;;;;11.82;6.60;;;;;;;11.88;92.72;101850.06;6174101;28;20494;-74
2021/06/01 05:32:00;;;;;;;7.28;5.68;;;;;;;11.98;93.20;101847.91;6173892;28;20051;-75
2021/06/01 05:35:03;;;;;;;12.20;7.13;;;;;;;12.03;93.05;101850.34;6174133;28;20046;-75
2021/06/01 05:38:06;;;;;;;14.13;6.82;;;;;;;12.11;93.00;101856.16;6173969;28;20129;-74
2021/06/01 05:41:06;;;;;;;19.25;6.53;;;;;;;12.23;92.35;101849.53;6174058;28;20047;-75
2021/06/01 05:44:07;;;;;;;9.60;6.68;;;;;;;12.35;91.55;101849.88;6174028;28;20090;-75
2021/06/01 05:47:08;;;;;;;15.80;6.45;;;;;;;12.43;91.27;101853.00;6179113;28;20053;-75
2021/06/01 05:50:10;;;;;;;13.00;7.60;;;;;;;12.50;91.96;101852.75;6173921;28;20054;-75
2021/06/01 05:53:12;;;;;;;15.20;9.20;;;;;;;12.59;91.70;101853.22;6173808;28;20510;-74
2021/06/01 05:56:13;;;;;;;17.25;8.90;;;;;;;12.61;92.10;101859.25;6173717;28;20054;-74
2021/06/01 05:59:14;;;;;;;19.02;7.65;;;;;;;12.68;91.53;101854.59;6176135;28;20134;-75
2021/06/01 06:02:15;;;;;;;24.33;7.03;;;;;;;12.83;90.08;101851.25;6173544;28;20046;-74
2021/06/01 06:05:17;;;;;;;10.38;6.65;;;;;;;12.92;90.17;101855.25;6173705;28;20102;-75
2021/06/01 06:08:20;;;;;;;12.85;6.18;;;;;;;12.97;90.59;101852.41;6173690;28;20051;-74
2021/06/01 06:11:21;;;;;;;8.77;5.70;;;;;;;13.08;90.02;101858.03;6173561;28;20552;-75
2021/06/01 06:14:22;;;;;;;13.52;6.05;;;;;;;13.16;89.94;101859.41;6173738;28;20047;-75
2021/06/01 06:17:31;;;;;;;9.55;6.13;;;;;;;13.19;90.82;101858.41;6173288;28;20057;-75
2021/06/01 06:20:33;;;;;;;14.93;6.45;;;;;;;13.36;89.85;101868.22;6173797;28;20502;-75
2021/06/01 06:23:40;;;;;;;11.18;6.25;;;;;;;13.39;88.76;101865.44;6173213;28;20047;-75
2021/06/01 06:26:41;;;;;;;13.95;6.10;;;;;;;13.42;88.88;101865.28;6173675;28;20051;-75
2021/06/01 06:29:41;;;;;;;12.90;6.50;;;;;;;13.44;88.85;101868.69;6173436;28;20101;-75
2021/06/01 06:32:42;;;;;;;17.23;6.22;;;;;;;13.50;89.26;101872.88;6173121;28;20054;-74
2021/06/01 06:35:43;;;;;;;14.05;7.15;;;;;;;13.54;89.26;101877.06;6173401;28;20054;-75
2021/06/01 06:38:47;;;;;;;13.30;6.47;;;;;;;13.61;89.11;101875.84;6173295;28;20051;-77
2021/06/01 06:41:47;;;;;;;15.60;6.85;;;;;;;13.64;89.56;101876.53;6172992;28;20575;-75
2021/06/01 06:44:50;;;;;;;12.73;5.97;;;;;;;13.66;89.13;101879.09;6173099;28;20113;-76
2021/06/01 06:48:05;;;;;;;13.25;6.75;;;;;;;13.71;89.19;101885.88;6173346;28;20043;-77
2021/06/01 06:51:12;;;;;;;10.25;5.97;;;;;;;13.77;88.62;101875.97;6176632;28;20051;-77
2021/06/01 06:54:15;;;;;;;6.93;5.70;;;;;;;13.86;88.35;101871.09;6177673;28;20058;-76
2021/06/01 06:57:16;;;;;;;12.95;7.13;;;;;;;13.90;90.31;101867.38;6177686;28;20057;-77
2021/06/01 07:00:19;;;;;;;17.52;7.75;;;;;;;13.94;90.37;101868.03;6177745;28;20461;-76
2021/06/01 07:03:20;;;;;;;14.00;7.05;;;;;;;14.06;89.85;101864.81;6177149;28;20050;-77
2021/06/01 07:06:22;;;;;;;15.07;7.22;;;;;;;14.17;90.19;101851.91;6177627;28;20134;-76
2021/06/01 07:09:24;;;;;;;11.50;6.95;;;;;;;14.28;90.61;101853.16;6177493;28;20082;-76
2021/06/01 07:12:25;;;;;;;14.00;7.30;;;;;;;14.38;90.62;101852.59;6177342;28;20047;-76
2021/06/01 07:15:41;;;;;;;10.40;6.93;;;;;;;14.56;90.15;101842.03;6177179;28;20521;-76
2021/06/01 07:18:42;;;;;;;15.48;7.05;;;;;;;14.70;88.33;101842.16;6177276;28;20157;-76
2021/06/01 07:21:43;;;;;;;19.23;6.82;;;;;;;14.84;86.63;101842.25;6182170;28;20046;-76
2021/06/01 07:24:45;;;;;;;22.33;6.95;;;;;;;14.97;86.24;101842.47;6192733;28;20520;-76
2021/06/01 07:27:46;;;;;;;11.10;5.60;;;;;;;15.10;84.45;101835.56;6192806;28;20113;-76
2021/06/01 07:30:47;;;;;;;9.68;5.28;;;;;;;15.16;81.95;101840.50;6200858;28;20125;-76
2021/06/01 07:33:48;;;;;;;12.75;6.20;;;;;;;15.27;78.52;101832.00;6191890;28;20042;-76
2021/06/01 07:36:49;;;;;;;11.05;4.45;;;;;;;15.42;75.57;101833.78;6200021;28;20070;-76
2021/06/01 07:39:51;;;;;;;6.38;4.40;;;;;;;15.58;75.15;101833.78;6193251;28;20042;-76
2021/06/01 07:42:52;;;;;;;11.07;4.22;;;;;;;15.78;72.44;101835.28;6192413;28;20057;-76
2021/06/01 07:45:53;;;;;;;7.20;4.20;;;;;;;15.90;71.51;101829.28;6194922;28;20057;-76
2021/06/01 07:48:54;;;;;;;6.82;4.68;;;;;;;15.87;71.85;101829.47;6183242;28;20073;-77
2021/06/01 07:51:55;;;;;;;11.30;4.45;;;;;;;15.90;72.60;101821.34;6200521;28;20046;-76
2021/06/01 07:54:57;;;;;;;5.60;3.70;;;;;;;15.93;73.02;101822.94;6179550;28;20087;-77
2021/06/01 07:57:58;;;;;;;6.78;3.95;;;;;;;15.96;73.04;101828.06;6176063;28;20121;-76
2021/06/01 08:00:59;;;;;;;9.40;3.33;;;;;;;16.05;70.87;101822.22;6174452;28;20066;-77
2021/06/01 08:04:00;;;;;;;10.02;3.47;;;;;;;16.05;68.94;101824.03;6199391;28;20054;-76
2021/06/01 08:07:04;;;;;;;5.68;3.20;;;;;;;16.10;66.82;101820.16;6200109;28;20109;-76
2021/06/01 08:10:08;;;;;;;9.02;3.13;;;;;;;16.18;66.83;101819.72;6199880;28;20065;-77
2021/06/01 08:13:09;;;;;;;7.05;3.05;;;;;;;16.29;65.12;101817.25;6199215;28;20449;-77
2021/06/01 08:16:10;;;;;;;8.95;3.05;;;;;;;16.40;65.13;101816.63;6199450;28;20057;-76
2021/06/01 08:19:14;;;;;;;4.75;3.25;;;;;;;16.48;65.86;101817.00;6199979;28;20145;-74
2021/06/01 08:22:29;;;;;;;5.85;3.13;;;;;;;16.54;66.38;101821.94;6198725;28;20453;-74
2021/06/01 08:25:32;;;;;;;11.48;2.88;;;;;;;16.62;64.24;101813.47;6199783;28;20061;-74
2021/06/01 08:28:33;;;;;;;4.35;2.60;;;;;;;16.72;64.48;101815.53;6199135;28;20050;-75
2021/06/01 08:31:34;;;;;;;6.90;2.78;;;;;;;16.74;63.90;101815.41;6199389;28;20061;-74
2021/06/01 08:34:35;;;;;;;4.28;2.15;;;;;;;16.79;62.20;101813.34;6199192;28;20050;-75
2021/06/01 08:37:36;;;;;;;4.05;2.42;;;;;;;16.87;59.30;101803.09;6199246;28;20070;-74
2021/06/01 08:40:38;;;;;;;5.28;2.40;;;;;;;16.96;58.44;101797.19;6199773;28;20579;-75
2021/06/01 08:43:39;;;;;;;4.13;2.50;;;;;;;17.16;61.61;101803.03;6198477;28;20050;-75
2021/06/01 08:46:40;;;;;;;4.88;2.92;;;;;;;17.31;61.81;101795.91;6199102;28;20143;-75
2021/06/01 08:49:41;;;;;;;5.10;3.15;;;;;;;17.36;61.73;101796.44;6198903;28;20092;-74
2021/06/01 08:52:43;;;;;;;6.35;2.65;;;;;;;17.60;58.76;101793.97;6198358;28;20053;-75
2021/06/01 08:55:46;;;;;;;5.85;3.30;;;;;;;17.64;59.25;101793.69;6198671;28;20057;-75
2021/06/01 08:58:49;;;;;;;6.82;2.95;;;;;;;17.76;58.36;101786.72;6198983;28;20063;-75
2021/06/01 09:01:50;;;;;;;3.60;2.67;;;;;;;17.89;57.91;101781.41;6198141;28;20152;-75
2021/06/01 09:04:54;;;;;;;11.10;3.58;;;;;;;17.96;54.52;101774.75;6198619;28;20054;-75
2021/06/01 09:08:01;;;;;;;8.52;2.70;;;;;;;17.90;54.95;101769.84;6198860;28;20214;-75
2021/06/01 09:11:09;;;;;;;10.70;2.60;;;;;;;17.92;56.16;101775.91;6198843;28;20050;-75
2021/06/01 09:14:55;;;;;;;4.95;3.47;;;;;;;18.10;56.46;101779.97;6197921;28;20054;-75
2021/06/01 09:21:40;;;;;;;5.53;2.72;;;;;;;18.32;53.51;101775.84;6195888;28;20050;-74
2021/06/01 09:24:59;;;;;;;8.80;3.00;;;;;;;18.36;56.17;101778.19;6196560;28;20060;-75
2021/06/01 09:28:03;;;;;;;9.80;3.10;;;;;;;18.48;52.98;101763.97;6197835;28;20431;-75
2021/06/01 09:31:04;;;;;;;4.68;2.95;;;;;;;18.58;54.58;101774.88;6197888;28;20054;-74
2021/06/01 09:34:06;;;;;;;3.88;2.50;;;;;;;18.81;54.61;101764.41;6197868;28;20432;-74
2021/06/01 09:37:23;;;;;;;5.15;3.10;;;;;;;18.83;55.60;101758.00;6197786;28;20407;-74
2021/06/01 09:40:24;;;;;;;4.45;2.50;;;;;;;18.77;54.65;101753.13;6198550;28;20453;-75
2021/06/01 09:43:27;;;;;;;10.85;3.33;;;;;;;18.76;55.71;101756.75;6197097;28;20097;-75
2021/06/01 09:46:29;;;;;;;5.28;2.70;;;;;;;18.85;56.16;101752.56;6196666;28;20046;-75
2021/06/01 09:49:30;;;;;;;5.22;2.67;;;;;;;18.91;53.54;101749.47;6195887;28;20502;-75
2021/06/01 09:52:45;;;;;;;5.90;3.03;;;;;;;19.11;53.01;101750.66;6190818;28;20054;-75
2021/06/01 09:55:47;;;;;;;5.88;2.65;;;;;;;19.26;53.05;101747.75;6186468;28;20096;-75
2021/06/01 09:58:51;;;;;;;4.65;2.60;;;;;;;19.32;53.83;101745.59;6195892;28;20061;-75
2021/06/01 10:01:52;;;;;;;16.38;3.40;;;;;;;19.31;54.53;101739.41;6196719;28;20050;-74
2021/06/01 10:05:07;;;;;;;4.78;2.88;;;;;;;19.52;55.60;101740.44;6196581;28;20069;-75
2021/06/01 10:08:14;;;;;;;4.30;2.47;;;;;;;19.74;50.34;101734.38;6196344;28;20058;-74
2021/06/01 10:11:15;;;;;;;3.95;2.95;;;;;;;19.87;50.21;101733.44;6197808;28;20112;-75
2021/06/01 10:14:18;;;;;;;4.75;2.50;;;;;;;19.83;52.51;101732.81;6197639;28;20047;-74
2021/06/01 10:17:19;;;;;;;5.30;2.72;;;;;;;19.65;53.83;101735.06;6197479;28;20054;-75
2021/06/01 10:20:22;;;;;;;9.68;2.85;;;;;;;19.77;52.20;101731.47;6197731;28;20112;-75
2021/06/01 10:23:27;;;;;;;7.32;2.63;;;;;;;19.71;52.87;101720.41;6197351;28;20113;-75
2021/06/01 10:26:28;;;;;;;7.65;2.83;;;;;;;19.66;50.36;101711.91;6201911;28;20056;-75
2021/06/01 10:29:30;;;;;;;4.50;2.80;;;;;;;19.93;50.24;101707.13;6202631;28;20078;-75
2021/06/01 10:32:34;;;;;;;10.02;2.65;;;;;;;20.00;52.91;101711.03;6201246;28;20051;-75
2021/06/01 10:35:39;;;;;;;5.65;2.92;;;;;;;20.32;48.13;101704.97;6201984;28;20363;-74
2021/06/01 10:49:42;;;;;;;5.45;2.47;;;;;;;20.67;48.23;101693.34;6200611;28;20054;-75
2021/06/01 10:53:07;;;;;;;4.45;2.72;;;;;;;20.53;46.16;101681.09;6195021;28;20047;-73
2021/06/01 10:56:09;;;;;;;5.75;3.05;;;;;;;20.56;49.43;101686.19;6200210;28;20050;-73
2021/06/01 10:59:11;;;;;;;6.25;2.85;;;;;;;21.05;43.69;101684.00;6200133;28;20489;-75
2021/06/01 11:02:12;;;;;;;5.97;2.60;;;;;;;20.89;46.43;101676.38;6201010;28;20046;-75
2021/06/01 11:05:15;;;;;;;9.43;3.10;;;;;;;21.04;46.95;101680.50;6201236;28;20055;-75
2021/06/01 11:08:33;;;;;;;4.38;2.83;;;;;;;21.20;47.73;101682.72;6201514;28;20054;-75
2021/06/01 11:11:35;;;;;;;5.75;2.85;;;;;;;21.49;45.68;101674.97;6200607;28;20046;-75
2021/06/01 11:14:35;;;;;;;4.20;2.50;;;;;;;21.87;43.99;101660.13;6200546;28;20596;-75
2021/06/01 11:17:38;;;;;;;4.97;2.60;;;;;;;21.96;43.49;101667.38;6199857;28;20050;-75
2021/06/01 11:21:09;;;;;;;4.35;2.10;;;;;;;22.13;39.04;101661.41;6225237;23;20046;-79
2021/06/01 11:34:11;;;;;;;6.55;2.78;;;;;;;23.20;39.59;101646.41;6202004;28;20081;-80
2021/06/01 11:37:21;;;;;;;5.57;2.45;;;;;;;23.55;41.65;101648.47;6204087;28;20053;-80
2021/06/01 11:40:28;;;;;;;5.05;3.00;;;;;;;23.98;39.43;101648.94;6202291;28;20050;-78
2021/06/01 11:43:30;;;;;;;43.05;4.22;;;;;;;24.17;39.37;101646.19;6201834;28;20145;-80
2021/06/01 11:46:39;;;;;;;16.38;3.20;;;;;;;24.37;38.45;101641.59;6201803;28;20058;-78
2021/06/01 11:53:14;;;;;;;20.30;3.10;;;;;;;24.79;37.46;101623.06;6169435;28;20405;-79
2021/06/01 11:56:32;;;;;;;8.82;3.13;;;;;;;24.72;38.61;101623.84;6177134;28;20050;-79
2021/06/01 12:02:58;;;;;;;10.38;2.75;;;;;;;24.65;38.17;101607.47;6177168;28;20047;-78
2021/06/01 12:12:49;;;;;;;6.28;3.05;;;;;;;25.06;39.35;101600.63;6181032;28;20054;-79
2021/06/01 12:19:11;;;;;;;5.53;2.85;;;;;;;25.44;35.58;101600.44;6183097;28;20058;-79
2021/06/01 12:22:12;;;;;;;5.05;2.75;;;;;;;25.71;36.38;101602.97;6183923;28;20086;-79
2021/06/01 12:25:14;;;;;;;9.13;3.03;;;;;;;25.77;33.89;101601.50;6182055;28;20054;-78
2021/06/01 12:30:53;;;;;;;7.20;2.88;;;;;;;25.47;36.63;101594.72;6183261;28;20062;-79
2021/06/01 12:32:01;;;;;;;7.22;2.80;;;;;;;25.45;34.40;101591.34;6175296;28;20526;-78
2021/06/01 12:35:13;;;;;;;8.63;2.90;;;;;;;24.98;36.66;101592.50;6174902;28;20050;-78
2021/06/01 12:41:46;;;;;;;4.28;2.67;;;;;;;24.78;38.15;101583.75;6199501;28;20417;-77
2021/06/01 12:44:50;;;;;;;5.75;3.20;;;;;;;24.74;39.14;101582.34;6199989;28;20145;-79
2021/06/01 13:08:34;;;;;;;9.25;3.22;;;;;;;26.41;36.58;101556.94;6194356;28;20058;-81
2021/06/01 13:22:06;;;;;;;5.47;2.80;;;;;;;26.59;35.96;101545.22;6173948;28;20082;-78
2021/06/01 13:38:37;;;;;;;8.27;2.90;;;;;;;26.86;35.50;101515.22;6189921;28;20074;-78
2021/06/01 13:52:08;;;;;;;7.13;2.90;;;;;;;26.74;35.23;101513.84;6182973;28;20053;-78
2021/06/01 13:55:13;;;;;;;5.15;3.03;;;;;;;26.16;36.45;101509.38;6174279;28;20057;-78
2021/06/01 13:58:29;;;;;;;12.88;2.75;;;;;;;25.50;37.31;101510.97;6196730;28;20050;-77
2021/06/01 14:01:52;;;;;;;30.05;4.68;;;;;;;25.46;36.71;101506.91;6190733;28;20054;-77
2021/06/01 14:15:32;;;;;;;5.63;3.40;;;;;;;25.60;36.47;101494.69;6174454;28;20522;-77
2021/06/01 14:38:52;;;;;;;8.85;2.97;;;;;;;25.58;35.81;101477.88;6196978;28;20046;-77
2021/06/01 15:29:12;;;;;;;5.68;2.95;;;;;;;24.28;39.85;101430.22;6195003;28;19922;-78
2021/06/01 15:32:17;;;;;;;7.18;2.95;;;;;;;24.21;39.63;101427.34;6201036;28;20046;-78
2021/06/01 15:48:56;;;;;;;6.70;3.10;;;;;;;24.60;38.59;101416.25;6201011;28;20047;-78
2021/06/01 16:12:45;;;;;;;5.78;3.03;;;;;;;23.77;39.31;101403.06;6175119;28;20062;-78
2021/06/01 16:22:45;;;;;;;4.53;2.78;;;;;;;23.49;40.55;101394.19;6174903;28;20054;-77
2021/06/01 16:32:53;;;;;;;7.63;3.03;;;;;;;23.35;42.76;101389.31;6176188;28;20047;-79
2021/06/01 16:43:02;;;;;;;5.30;3.10;;;;;;;23.40;40.81;101381.66;6175678;28;20078;-78
2021/06/01 17:06:13;;;;;;;5.78;2.92;;;;;;;22.93;39.48;101380.88;6174988;28;20062;-78
2021/06/01 17:12:45;;;;;;;6.47;2.85;;;;;;;22.96;40.38;101376.06;6173011;28;20043;-77
2021/06/01 17:15:51;;;;;;;5.22;2.95;;;;;;;22.92;40.83;101371.16;6173874;28;20130;-78
2021/06/01 17:19:31;;;;;;;5.55;3.25;;;;;;;22.70;42.70;101366.94;6175367;28;20050;-78
2021/06/01 17:22:45;;;;;;;7.63;3.17;;;;;;;22.64;43.51;101376.41;6210736;23;20145;-82
2021/06/01 17:36:05;;;;;;;4.15;2.85;;;;;;;22.45;46.52;101371.13;6199452;28;20058;-84
2021/06/01 17:39:06;;;;;;;10.73;3.42;;;;;;;22.45;45.25;101371.94;6199006;28;20046;-83
2021/06/01 17:42:08;;;;;;;6.03;2.85;;;;;;;22.44;45.56;101370.28;6194041;28;20126;-82
2021/06/01 17:45:15;;;;;;;8.75;3.42;;;;;;;22.29;47.45;101369.00;6173451;28;20098;-83
2021/06/01 17:48:30;;;;;;;5.50;3.33;;;;;;;22.18;48.22;101370.00;6173779;28;20058;-84
2021/06/01 17:51:32;;;;;;;7.28;3.17;;;;;;;22.12;47.38;101369.72;6174782;28;20058;-81
2021/06/01 17:54:35;;;;;;;5.28;3.40;;;;;;;22.17;47.51;101373.69;6174231;28;20069;-83
2021/06/01 17:57:36;;;;;;;7.97;4.18;;;;;;;21.94;48.08;101375.75;6175065;28;20051;-82
2021/06/01 18:00:38;;;;;;;9.80;4.00;;;;;;;21.76;49.69;101364.91;6174884;28;20491;-83
2021/06/01 18:03:45;;;;;;;10.15;3.83;;;;;;;21.91;47.04;101375.19;6174577;28;20050;-83
2021/06/01 18:06:49;;;;;;;8.45;3.80;;;;;;;21.69;47.75;101363.75;6174328;28;20419;-83
2021/06/01 18:10:18;;;;;;;6.00;3.47;;;;;;;21.77;48.37;101369.28;6174175;28;20133;-84
2021/06/01 18:13:58;;;;;;;12.18;3.53;;;;;;;21.71;50.13;101371.63;6174384;28;20050;-83
2021/06/01 18:37:18;;;;;;;4.88;3.00;;;;;;;21.20;48.79;101357.41;6199738;28;20051;-84
2021/06/01 19:00:38;;;;;;;8.05;2.90;;;;;;;21.04;45.92;101362.44;6204237;28;20050;-85
2021/06/01 19:50:18;;;;;;;8.80;3.33;;;;;;;19.95;53.62;101417.06;6192199;28;20062;-84
2021/06/01 19:53:21;;;;;;;8.32;3.00;;;;;;;19.90;52.82;101413.06;6176470;28;20059;-83
2021/06/01 19:56:23;;;;;;;7.55;3.13;;;;;;;19.83;52.82;101409.19;6177117;28;20058;-84
2021/06/01 19:59:27;;;;;;;6.97;2.78;;;;;;;19.86;52.03;101414.28;6177197;28;20392;-85
2021/06/01 20:02:30;;;;;;;4.57;2.92;;;;;;;19.69;54.00;101413.00;6177275;28;20047;-83
2021/06/01 20:05:31;;;;;;;9.73;3.08;;;;;;;19.73;54.67;101411.78;6176202;28;20054;-84
2021/06/01 20:08:32;;;;;;;5.22;3.08;;;;;;;19.61;53.54;101418.09;6179380;28;20125;-85
2021/06/01 20:11:35;;;;;;;11.90;2.95;;;;;;;19.59;52.82;101420.84;6181047;28;20050;-85